sensor_id;sensor_type;location;lat;lon;timestamp;temperature;humidity
26103;DHT22;69760;49.380;8.998;2023-06-22T00:01:27;22.80;99.70
26103;DHT22;69760;49.380;8.998;2023-06-22T00:03:53;22.80;99.60
26103;DHT22;69760;49.380;8.998;2023-06-22T00:06:18;22.80;99.40
26103;DHT22;69760;49.380;8.998;2023-06-22T00:08:44;22.80;99.30
26103;DHT22;69760;49.380;8.998;2023-06-22T00:11:10;22.80;99.50
26103;DHT22;69760;49.380;8.998;2023-06-22T00:13:37;22.80;99.90
26103;DHT22;69760;49.380;8.998;2023-06-22T00:16:03;22.70;99.90
26103;DHT22;69760;49.380;8.998;2023-06-22T00:18:29;22.70;99.90
26103;DHT22;69760;49.380;8.998;2023-06-22T00:20:55;22.60;99.90
26103;DHT22;69760;49.380;8.998;2023-06-22T00:23:24;22.60;99.90
26103;DHT22;69760;49.380;8.998;2023-06-22T00:25:50;22.60;99.90
26103;DHT22;69760;49.380;8.998;2023-06-22T00:28:15;22.60;99.90
26103;DHT22;69760;49.380;8.998;2023-06-22T00:30:41;22.60;99.90
26103;DHT22;69760;49.380;8.998;2023-06-22T00:33:07;22.60;99.90
26103;DHT22;69760;49.380;8.998;2023-06-22T00:35:33;22.60;99.90
26103;DHT22;69760;49.380;8.998;2023-06-22T00:38:00;22.60;99.90
26103;DHT22;69760;49.380;8.998;2023-06-22T00:40:32;22.60;99.90
26103;DHT22;69760;49.380;8.998;2023-06-22T00:42:58;22.50;99.90
26103;DHT22;69760;49.380;8.998;2023-06-22T00:45:24;22.40;99.90
26103;DHT22;69760;49.380;8.998;2023-06-22T00:47:56;22.50;99.90
26103;DHT22;69760;49.380;8.998;2023-06-22T00:50:23;22.50;99.90
26103;DHT22;69760;49.380;8.998;2023-06-22T00:52:55;22.50;99.90
26103;DHT22;69760;49.380;8.998;2023-06-22T00:55:22;22.50;99.90
26103;DHT22;69760;49.380;8.998;2023-06-22T00:57:49;22.50;99.90
26103;DHT22;69760;49.380;8.998;2023-06-22T01:00:15;22.40;99.90
26103;DHT22;69760;49.380;8.998;2023-06-22T01:02:46;22.30;99.90
26103;DHT22;69760;49.380;8.998;2023-06-22T01:05:18;22.20;99.90
26103;DHT22;69760;49.380;8.998;2023-06-22T01:10:48;21.90;99.90
26103;DHT22;69760;49.380;8.998;2023-06-22T01:13:43;21.90;99.90
26103;DHT22;69760;49.380;8.998;2023-06-22T01:18:42;22.10;99.90
26103;DHT22;69760;49.380;8.998;2023-06-22T01:21:11;22.20;99.90
26103;DHT22;69760;49.380;8.998;2023-06-22T01:29:50;22.10;99.90
26103;DHT22;69760;49.380;8.998;2023-06-22T01:32:17;21.80;99.90
26103;DHT22;69760;49.380;8.998;2023-06-22T01:34:43;21.60;99.90
26103;DHT22;69760;49.380;8.998;2023-06-22T01:37:09;21.40;99.90
26103;DHT22;69760;49.380;8.998;2023-06-22T01:39:35;21.50;99.90
26103;DHT22;69760;49.380;8.998;2023-06-22T01:42:02;21.50;99.90
26103;DHT22;69760;49.380;8.998;2023-06-22T01:44:29;21.60;99.90
26103;DHT22;69760;49.380;8.998;2023-06-22T01:46:55;21.60;99.90
26103;DHT22;69760;49.380;8.998;2023-06-22T01:49:21;21.50;99.90
26103;DHT22;69760;49.380;8.998;2023-06-22T01:51:46;21.50;99.90
26103;DHT22;69760;49.380;8.998;2023-06-22T01:54:12;21.50;99.90
26103;DHT22;69760;49.380;8.998;2023-06-22T01:56:38;21.60;99.90
26103;DHT22;69760;49.380;8.998;2023-06-22T01:59:26;21.60;99.90
26103;DHT22;69760;49.380;8.998;2023-06-22T02:02:04;21.70;99.90
26103;DHT22;69760;49.380;8.998;2023-06-22T02:04:38;21.70;99.90
26103;DHT22;69760;49.380;8.998;2023-06-22T02:07:17;21.70;99.90
26103;DHT22;69760;49.380;8.998;2023-06-22T02:09:45;21.70;99.90
26103;DHT22;69760;49.380;8.998;2023-06-22T02:12:13;21.70;99.90
26103;DHT22;69760;49.380;8.998;2023-06-22T02:14:42;21.70;99.90
26103;DHT22;69760;49.380;8.998;2023-06-22T02:17:09;21.70;99.90
26103;DHT22;69760;49.380;8.998;2023-06-22T02:19:38;21.70;99.90
26103;DHT22;69760;49.380;8.998;2023-06-22T02:22:04;21.60;99.90
26103;DHT22;69760;49.380;8.998;2023-06-22T02:24:30;21.60;99.90
26103;DHT22;69760;49.380;8.998;2023-06-22T02:27:01;21.40;99.90
26103;DHT22;69760;49.380;8.998;2023-06-22T02:29:27;21.40;99.90
26103;DHT22;69760;49.380;8.998;2023-06-22T02:31:53;21.30;99.90
26103;DHT22;69760;49.380;8.998;2023-06-22T02:34:19;21.30;99.90
26103;DHT22;69760;49.380;8.998;2023-06-22T02:36:51;21.30;99.90
26103;DHT22;69760;49.380;8.998;2023-06-22T02:39:21;21.20;99.90
26103;DHT22;69760;49.380;8.998;2023-06-22T02:41:48;21.20;99.90
26103;DHT22;69760;49.380;8.998;2023-06-22T02:44:14;21.20;99.90
26103;DHT22;69760;49.380;8.998;2023-06-22T02:46:39;21.20;99.90
26103;DHT22;69760;49.380;8.998;2023-06-22T02:49:05;21.20;99.90
26103;DHT22;69760;49.380;8.998;2023-06-22T02:51:33;21.20;99.90
26103;DHT22;69760;49.380;8.998;2023-06-22T02:54:01;21.20;99.90
26103;DHT22;69760;49.380;8.998;2023-06-22T02:56:28;21.10;99.90
26103;DHT22;69760;49.380;8.998;2023-06-22T02:58:55;21.10;99.90
26103;DHT22;69760;49.380;8.998;2023-06-22T03:01:26;21.10;99.90
26103;DHT22;69760;49.380;8.998;2023-06-22T03:03:53;21.00;99.90
26103;DHT22;69760;49.380;8.998;2023-06-22T03:06:19;21.00;99.90
26103;DHT22;69760;49.380;8.998;2023-06-22T03:08:51;21.00;99.90
26103;DHT22;69760;49.380;8.998;2023-06-22T03:11:16;20.90;99.90
26103;DHT22;69760;49.380;8.998;2023-06-22T03:13:43;20.80;99.90
26103;DHT22;69760;49.380;8.998;2023-06-22T03:16:09;20.80;99.90
26103;DHT22;69760;49.380;8.998;2023-06-22T03:18:34;20.80;99.90
26103;DHT22;69760;49.380;8.998;2023-06-22T03:21:00;20.80;99.90
26103;DHT22;69760;49.380;8.998;2023-06-22T03:23:27;20.80;99.90
26103;DHT22;69760;49.380;8.998;2023-06-22T03:25:53;20.80;99.90
26103;DHT22;69760;49.380;8.998;2023-06-22T03:28:21;20.80;99.90
26103;DHT22;69760;49.380;8.998;2023-06-22T03:30:47;20.70;99.90
26103;DHT22;69760;49.380;8.998;2023-06-22T03:33:12;20.70;99.90
26103;DHT22;69760;49.380;8.998;2023-06-22T03:35:38;20.70;99.90
26103;DHT22;69760;49.380;8.998;2023-06-22T03:38:03;20.70;99.90
26103;DHT22;69760;49.380;8.998;2023-06-22T03:40:29;20.70;99.90
26103;DHT22;69760;49.380;8.998;2023-06-22T03:42:55;20.70;99.90
26103;DHT22;69760;49.380;8.998;2023-06-22T03:45:20;20.70;99.90
26103;DHT22;69760;49.380;8.998;2023-06-22T03:47:46;20.80;99.90
26103;DHT22;69760;49.380;8.998;2023-06-22T03:50:12;20.80;99.90
26103;DHT22;69760;49.380;8.998;2023-06-22T03:52:37;20.80;99.90
26103;DHT22;69760;49.380;8.998;2023-06-22T03:55:03;20.80;99.90
26103;DHT22;69760;49.380;8.998;2023-06-22T03:57:29;20.80;99.90
26103;DHT22;69760;49.380;8.998;2023-06-22T03:59:57;20.80;99.90
26103;DHT22;69760;49.380;8.998;2023-06-22T04:02:23;20.80;99.90
26103;DHT22;69760;49.380;8.998;2023-06-22T04:04:49;20.80;99.90
26103;DHT22;69760;49.380;8.998;2023-06-22T04:07:14;20.80;99.90
26103;DHT22;69760;49.380;8.998;2023-06-22T04:09:40;20.80;99.90
26103;DHT22;69760;49.380;8.998;2023-06-22T04:12:06;20.90;99.90
26103;DHT22;69760;49.380;8.998;2023-06-22T04:14:31;20.90;99.90
26103;DHT22;69760;49.380;8.998;2023-06-22T04:16:58;20.90;99.90
26103;DHT22;69760;49.380;8.998;2023-06-22T04:19:23;20.90;99.90
26103;DHT22;69760;49.380;8.998;2023-06-22T04:21:49;20.90;99.90
26103;DHT22;69760;49.380;8.998;2023-06-22T04:24:15;20.90;99.90
26103;DHT22;69760;49.380;8.998;2023-06-22T04:26:40;20.90;99.90
26103;DHT22;69760;49.380;8.998;2023-06-22T04:29:07;20.90;99.90
26103;DHT22;69760;49.380;8.998;2023-06-22T04:31:36;20.90;99.90
26103;DHT22;69760;49.380;8.998;2023-06-22T04:34:03;20.90;99.90
26103;DHT22;69760;49.380;8.998;2023-06-22T04:36:37;20.90;99.90
26103;DHT22;69760;49.380;8.998;2023-06-22T04:39:11;20.90;99.90
26103;DHT22;69760;49.380;8.998;2023-06-22T04:41:38;20.90;99.90
26103;DHT22;69760;49.380;8.998;2023-06-22T04:44:11;20.90;99.90
26103;DHT22;69760;49.380;8.998;2023-06-22T04:46:37;20.90;99.90
26103;DHT22;69760;49.380;8.998;2023-06-22T04:49:09;21.00;99.90
26103;DHT22;69760;49.380;8.998;2023-06-22T04:51:40;21.00;99.90
26103;DHT22;69760;49.380;8.998;2023-06-22T04:54:07;21.00;99.90
26103;DHT22;69760;49.380;8.998;2023-06-22T04:56:33;21.10;99.90
26103;DHT22;69760;49.380;8.998;2023-06-22T04:58:59;21.10;99.90
26103;DHT22;69760;49.380;8.998;2023-06-22T05:01:25;21.20;99.90
26103;DHT22;69760;49.380;8.998;2023-06-22T05:03:51;21.20;99.90
26103;DHT22;69760;49.380;8.998;2023-06-22T05:06:24;21.20;99.90
26103;DHT22;69760;49.380;8.998;2023-06-22T05:08:53;21.30;99.90
26103;DHT22;69760;49.380;8.998;2023-06-22T05:11:26;21.30;99.90
26103;DHT22;69760;49.380;8.998;2023-06-22T05:13:52;21.30;99.90
26103;DHT22;69760;49.380;8.998;2023-06-22T05:16:18;21.30;99.90
26103;DHT22;69760;49.380;8.998;2023-06-22T05:18:55;21.20;99.90
26103;DHT22;69760;49.380;8.998;2023-06-22T05:21:25;21.30;99.90
26103;DHT22;69760;49.380;8.998;2023-06-22T05:23:51;21.30;99.90
26103;DHT22;69760;49.380;8.998;2023-06-22T05:26:18;21.30;99.90
26103;DHT22;69760;49.380;8.998;2023-06-22T05:28:45;21.30;99.90
26103;DHT22;69760;49.380;8.998;2023-06-22T05:31:12;21.30;99.90
26103;DHT22;69760;49.380;8.998;2023-06-22T05:33:38;21.30;99.90
26103;DHT22;69760;49.380;8.998;2023-06-22T05:36:04;21.30;99.90
26103;DHT22;69760;49.380;8.998;2023-06-22T05:38:30;21.40;99.90
26103;DHT22;69760;49.380;8.998;2023-06-22T05:40:56;21.40;99.90
26103;DHT22;69760;49.380;8.998;2023-06-22T05:43:22;21.40;99.90
26103;DHT22;69760;49.380;8.998;2023-06-22T05:45:47;21.50;99.90
26103;DHT22;69760;49.380;8.998;2023-06-22T05:48:13;21.60;99.90
26103;DHT22;69760;49.380;8.998;2023-06-22T05:50:38;21.60;99.90
26103;DHT22;69760;49.380;8.998;2023-06-22T05:53:04;21.70;99.90
26103;DHT22;69760;49.380;8.998;2023-06-22T05:55:29;21.80;99.90
26103;DHT22;69760;49.380;8.998;2023-06-22T05:57:55;21.90;99.90
26103;DHT22;69760;49.380;8.998;2023-06-22T06:00:20;22.00;99.90
26103;DHT22;69760;49.380;8.998;2023-06-22T06:02:49;22.10;99.90
26103;DHT22;69760;49.380;8.998;2023-06-22T06:05:15;22.10;99.90
26103;DHT22;69760;49.380;8.998;2023-06-22T06:07:44;22.20;99.90
26103;DHT22;69760;49.380;8.998;2023-06-22T06:10:10;22.40;99.90
26103;DHT22;69760;49.380;8.998;2023-06-22T06:12:35;22.50;99.90
26103;DHT22;69760;49.380;8.998;2023-06-22T06:15:02;22.50;99.90
26103;DHT22;69760;49.380;8.998;2023-06-22T06:17:27;22.60;99.90
26103;DHT22;69760;49.380;8.998;2023-06-22T06:19:53;22.60;99.90
26103;DHT22;69760;49.380;8.998;2023-06-22T06:22:19;22.70;99.90
26103;DHT22;69760;49.380;8.998;2023-06-22T06:24:46;22.90;99.90
26103;DHT22;69760;49.380;8.998;2023-06-22T06:27:13;23.00;99.90
26103;DHT22;69760;49.380;8.998;2023-06-22T06:29:38;23.00;99.90
26103;DHT22;69760;49.380;8.998;2023-06-22T06:32:04;23.10;99.90
26103;DHT22;69760;49.380;8.998;2023-06-22T06:34:30;23.20;99.90
26103;DHT22;69760;49.380;8.998;2023-06-22T06:36:55;23.30;99.90
26103;DHT22;69760;49.380;8.998;2023-06-22T06:39:21;23.40;99.90
26103;DHT22;69760;49.380;8.998;2023-06-22T06:41:46;23.50;99.90
26103;DHT22;69760;49.380;8.998;2023-06-22T06:44:12;23.50;99.90
26103;DHT22;69760;49.380;8.998;2023-06-22T06:46:38;23.60;99.90
26103;DHT22;69760;49.380;8.998;2023-06-22T06:49:04;23.60;99.90
26103;DHT22;69760;49.380;8.998;2023-06-22T06:51:29;23.60;99.90
26103;DHT22;69760;49.380;8.998;2023-06-22T06:53:55;23.70;99.90
26103;DHT22;69760;49.380;8.998;2023-06-22T06:56:20;23.80;99.90
26103;DHT22;69760;49.380;8.998;2023-06-22T06:58:46;23.80;99.90
26103;DHT22;69760;49.380;8.998;2023-06-22T07:01:12;23.90;99.90
26103;DHT22;69760;49.380;8.998;2023-06-22T07:03:38;24.00;99.90
26103;DHT22;69760;49.380;8.998;2023-06-22T07:06:04;24.00;99.90
26103;DHT22;69760;49.380;8.998;2023-06-22T07:08:29;24.00;99.90
26103;DHT22;69760;49.380;8.998;2023-06-22T07:10:55;24.10;99.90
26103;DHT22;69760;49.380;8.998;2023-06-22T07:13:21;24.10;99.90
26103;DHT22;69760;49.380;8.998;2023-06-22T07:15:46;24.30;99.90
26103;DHT22;69760;49.380;8.998;2023-06-22T07:18:12;24.30;99.90
26103;DHT22;69760;49.380;8.998;2023-06-22T07:20:37;24.30;99.90
26103;DHT22;69760;49.380;8.998;2023-06-22T07:23:04;24.40;99.90
26103;DHT22;69760;49.380;8.998;2023-06-22T07:25:30;24.50;99.90
26103;DHT22;69760;49.380;8.998;2023-06-22T07:28:04;24.50;99.90
26103;DHT22;69760;49.380;8.998;2023-06-22T07:30:31;24.50;99.90
26103;DHT22;69760;49.380;8.998;2023-06-22T07:32:57;24.60;99.90
26103;DHT22;69760;49.380;8.998;2023-06-22T07:35:24;24.70;99.90
26103;DHT22;69760;49.380;8.998;2023-06-22T07:37:50;24.80;99.90
26103;DHT22;69760;49.380;8.998;2023-06-22T07:40:15;24.90;99.90
26103;DHT22;69760;49.380;8.998;2023-06-22T07:42:41;25.00;99.90
26103;DHT22;69760;49.380;8.998;2023-06-22T07:45:07;25.00;99.90
26103;DHT22;69760;49.380;8.998;2023-06-22T07:47:34;25.10;99.90
26103;DHT22;69760;49.380;8.998;2023-06-22T07:50:00;25.20;99.90
26103;DHT22;69760;49.380;8.998;2023-06-22T07:52:27;25.20;99.90
26103;DHT22;69760;49.380;8.998;2023-06-22T07:54:53;25.30;99.90
26103;DHT22;69760;49.380;8.998;2023-06-22T07:57:19;25.40;99.90
26103;DHT22;69760;49.380;8.998;2023-06-22T07:59:45;25.50;99.90
26103;DHT22;69760;49.380;8.998;2023-06-22T08:02:11;25.60;99.90
26103;DHT22;69760;49.380;8.998;2023-06-22T08:04:36;25.70;99.90
26103;DHT22;69760;49.380;8.998;2023-06-22T08:07:02;25.80;99.90
26103;DHT22;69760;49.380;8.998;2023-06-22T08:09:29;25.80;99.90
26103;DHT22;69760;49.380;8.998;2023-06-22T08:11:55;25.90;99.90
26103;DHT22;69760;49.380;8.998;2023-06-22T08:14:25;25.90;99.90
26103;DHT22;69760;49.380;8.998;2023-06-22T08:16:50;26.00;99.90
26103;DHT22;69760;49.380;8.998;2023-06-22T08:19:16;26.10;99.90
26103;DHT22;69760;49.380;8.998;2023-06-22T08:21:42;26.20;99.90
26103;DHT22;69760;49.380;8.998;2023-06-22T08:24:08;26.30;99.90
26103;DHT22;69760;49.380;8.998;2023-06-22T08:26:33;26.40;99.90
26103;DHT22;69760;49.380;8.998;2023-06-22T08:29:05;26.50;99.90
26103;DHT22;69760;49.380;8.998;2023-06-22T08:31:31;26.50;99.90
26103;DHT22;69760;49.380;8.998;2023-06-22T08:34:00;26.60;99.90
26103;DHT22;69760;49.380;8.998;2023-06-22T08:36:25;26.70;99.90
26103;DHT22;69760;49.380;8.998;2023-06-22T08:38:54;26.70;99.30
26103;DHT22;69760;49.380;8.998;2023-06-22T08:41:26;26.80;99.80
26103;DHT22;69760;49.380;8.998;2023-06-22T08:43:52;27.00;99.20
26103;DHT22;69760;49.380;8.998;2023-06-22T08:46:19;27.20;99.90
26103;DHT22;69760;49.380;8.998;2023-06-22T08:48:48;27.40;99.80
26103;DHT22;69760;49.380;8.998;2023-06-22T08:51:14;27.50;98.20
26103;DHT22;69760;49.380;8.998;2023-06-22T08:53:40;27.50;97.30
26103;DHT22;69760;49.380;8.998;2023-06-22T08:56:05;27.60;96.90
26103;DHT22;69760;49.380;8.998;2023-06-22T08:58:31;27.70;95.80
26103;DHT22;69760;49.380;8.998;2023-06-22T09:00:56;27.90;97.20
26103;DHT22;69760;49.380;8.998;2023-06-22T09:03:22;27.90;95.30
26103;DHT22;69760;49.380;8.998;2023-06-22T09:05:51;28.10;95.70
26103;DHT22;69760;49.380;8.998;2023-06-22T09:08:17;28.20;96.20
26103;DHT22;69760;49.380;8.998;2023-06-22T09:10:42;28.30;93.10
26103;DHT22;69760;49.380;8.998;2023-06-22T09:13:08;28.30;93.30
26103;DHT22;69760;49.380;8.998;2023-06-22T09:15:33;28.30;94.00
26103;DHT22;69760;49.380;8.998;2023-06-22T09:18:00;28.40;93.40
26103;DHT22;69760;49.380;8.998;2023-06-22T09:20:25;28.40;94.50
26103;DHT22;69760;49.380;8.998;2023-06-22T09:22:51;28.50;93.50
26103;DHT22;69760;49.380;8.998;2023-06-22T09:25:16;28.60;93.60
26103;DHT22;69760;49.380;8.998;2023-06-22T09:27:42;28.80;92.90
26103;DHT22;69760;49.380;8.998;2023-06-22T09:30:08;29.00;91.50
26103;DHT22;69760;49.380;8.998;2023-06-22T09:32:34;29.20;92.20
26103;DHT22;69760;49.380;8.998;2023-06-22T09:35:03;29.20;92.90
26103;DHT22;69760;49.380;8.998;2023-06-22T09:37:30;29.30;91.60
26103;DHT22;69760;49.380;8.998;2023-06-22T09:39:56;29.40;91.40
26103;DHT22;69760;49.380;8.998;2023-06-22T09:42:22;29.50;91.00
26103;DHT22;69760;49.380;8.998;2023-06-22T09:44:47;29.50;90.20
26103;DHT22;69760;49.380;8.998;2023-06-22T09:47:13;29.40;91.00
26103;DHT22;69760;49.380;8.998;2023-06-22T09:49:38;29.50;91.30
26103;DHT22;69760;49.380;8.998;2023-06-22T09:52:04;29.60;91.60
26103;DHT22;69760;49.380;8.998;2023-06-22T09:54:30;29.70;90.80
26103;DHT22;69760;49.380;8.998;2023-06-22T09:56:56;29.80;90.60
26103;DHT22;69760;49.380;8.998;2023-06-22T09:59:21;29.90;88.60
26103;DHT22;69760;49.380;8.998;2023-06-22T10:01:47;30.10;85.30
26103;DHT22;69760;49.380;8.998;2023-06-22T10:04:12;30.10;86.30
26103;DHT22;69760;49.380;8.998;2023-06-22T10:06:38;30.10;87.30
26103;DHT22;69760;49.380;8.998;2023-06-22T10:09:06;30.20;84.20
26103;DHT22;69760;49.380;8.998;2023-06-22T10:11:32;30.20;84.30
26103;DHT22;69760;49.380;8.998;2023-06-22T10:14:00;30.40;86.40
26103;DHT22;69760;49.380;8.998;2023-06-22T10:16:30;30.40;83.50
26103;DHT22;69760;49.380;8.998;2023-06-22T10:18:56;30.50;84.00
26103;DHT22;69760;49.380;8.998;2023-06-22T10:21:22;30.60;83.40
26103;DHT22;69760;49.380;8.998;2023-06-22T10:23:47;30.70;82.80
26103;DHT22;69760;49.380;8.998;2023-06-22T10:26:13;31.00;81.90
26103;DHT22;69760;49.380;8.998;2023-06-22T10:28:38;31.20;79.60
26103;DHT22;69760;49.380;8.998;2023-06-22T10:31:04;31.30;79.40
26103;DHT22;69760;49.380;8.998;2023-06-22T10:33:29;31.40;78.70
26103;DHT22;69760;49.380;8.998;2023-06-22T10:35:55;31.50;78.10
26103;DHT22;69760;49.380;8.998;2023-06-22T10:38:20;31.60;74.90
26103;DHT22;69760;49.380;8.998;2023-06-22T10:40:46;31.60;75.00
26103;DHT22;69760;49.380;8.998;2023-06-22T10:43:12;31.80;77.30
26103;DHT22;69760;49.380;8.998;2023-06-22T10:45:37;31.90;73.50
26103;DHT22;69760;49.380;8.998;2023-06-22T10:48:03;31.90;73.70
26103;DHT22;69760;49.380;8.998;2023-06-22T10:50:29;31.90;73.10
26103;DHT22;69760;49.380;8.998;2023-06-22T10:52:54;32.00;75.60
26103;DHT22;69760;49.380;8.998;2023-06-22T10:55:20;31.90;73.40
26103;DHT22;69760;49.380;8.998;2023-06-22T10:57:46;32.10;75.00
26103;DHT22;69760;49.380;8.998;2023-06-22T11:00:13;32.20;76.10
26103;DHT22;69760;49.380;8.998;2023-06-22T11:02:38;32.40;77.50
26103;DHT22;69760;49.380;8.998;2023-06-22T11:05:04;32.40;72.10
26103;DHT22;69760;49.380;8.998;2023-06-22T11:07:30;32.40;71.60
26103;DHT22;69760;49.380;8.998;2023-06-22T11:09:56;32.30;70.50
26103;DHT22;69760;49.380;8.998;2023-06-22T11:12:22;32.20;73.60
26103;DHT22;69760;49.380;8.998;2023-06-22T11:14:47;32.00;73.10
26103;DHT22;69760;49.380;8.998;2023-06-22T11:17:15;31.90;72.10
26103;DHT22;69760;49.380;8.998;2023-06-22T11:19:41;31.70;74.00
26103;DHT22;69760;49.380;8.998;2023-06-22T11:22:06;31.70;74.00
26103;DHT22;69760;49.380;8.998;2023-06-22T11:24:32;31.80;74.20
26103;DHT22;69760;49.380;8.998;2023-06-22T11:26:57;32.10;73.80
26103;DHT22;69760;49.380;8.998;2023-06-22T11:29:23;32.20;69.60
26103;DHT22;69760;49.380;8.998;2023-06-22T11:31:49;32.40;71.70
26103;DHT22;69760;49.380;8.998;2023-06-22T11:34:14;32.50;75.00
26103;DHT22;69760;49.380;8.998;2023-06-22T11:36:40;32.60;75.10
26103;DHT22;69760;49.380;8.998;2023-06-22T11:39:05;32.50;73.20
26103;DHT22;69760;49.380;8.998;2023-06-22T11:41:31;32.40;70.30
26103;DHT22;69760;49.380;8.998;2023-06-22T11:43:56;32.50;69.10
26103;DHT22;69760;49.380;8.998;2023-06-22T11:46:22;32.40;70.10
26103;DHT22;69760;49.380;8.998;2023-06-22T11:48:47;32.40;70.50
26103;DHT22;69760;49.380;8.998;2023-06-22T11:51:13;32.40;70.00
26103;DHT22;69760;49.380;8.998;2023-06-22T11:53:38;32.40;68.80
26103;DHT22;69760;49.380;8.998;2023-06-22T11:56:04;32.40;70.40
26103;DHT22;69760;49.380;8.998;2023-06-22T11:58:30;32.40;70.90
26103;DHT22;69760;49.380;8.998;2023-06-22T12:00:55;32.40;67.30
26103;DHT22;69760;49.380;8.998;2023-06-22T12:03:21;32.30;67.90
26103;DHT22;69760;49.380;8.998;2023-06-22T12:05:47;32.30;71.00
26103;DHT22;69760;49.380;8.998;2023-06-22T12:08:12;32.20;69.80
26103;DHT22;69760;49.380;8.998;2023-06-22T12:10:39;32.10;68.80
26103;DHT22;69760;49.380;8.998;2023-06-22T12:13:04;32.00;68.00
26103;DHT22;69760;49.380;8.998;2023-06-22T12:15:30;31.90;69.10
26103;DHT22;69760;49.380;8.998;2023-06-22T12:17:55;31.70;70.10
26103;DHT22;69760;49.380;8.998;2023-06-22T12:20:21;31.70;71.70
26103;DHT22;69760;49.380;8.998;2023-06-22T12:22:46;31.60;69.80
26103;DHT22;69760;49.380;8.998;2023-06-22T12:25:13;31.50;71.20
26103;DHT22;69760;49.380;8.998;2023-06-22T12:27:38;31.50;72.80
26103;DHT22;69760;49.380;8.998;2023-06-22T12:30:04;31.50;71.70
26103;DHT22;69760;49.380;8.998;2023-06-22T12:32:30;31.50;73.40
26103;DHT22;69760;49.380;8.998;2023-06-22T12:34:56;31.50;74.30
26103;DHT22;69760;49.380;8.998;2023-06-22T12:37:22;31.60;74.80
26103;DHT22;69760;49.380;8.998;2023-06-22T12:39:48;31.70;75.50
26103;DHT22;69760;49.380;8.998;2023-06-22T12:42:14;31.80;74.30
26103;DHT22;69760;49.380;8.998;2023-06-22T12:44:40;31.90;73.80
26103;DHT22;69760;49.380;8.998;2023-06-22T12:47:06;32.10;74.00
26103;DHT22;69760;49.380;8.998;2023-06-22T12:49:34;32.20;73.40
26103;DHT22;69760;49.380;8.998;2023-06-22T12:51:59;32.40;74.40
26103;DHT22;69760;49.380;8.998;2023-06-22T12:54:25;32.60;74.00
26103;DHT22;69760;49.380;8.998;2023-06-22T12:56:50;32.70;74.90
26103;DHT22;69760;49.380;8.998;2023-06-22T12:59:16;32.90;75.90
26103;DHT22;69760;49.380;8.998;2023-06-22T13:01:43;33.00;76.30
26103;DHT22;69760;49.380;8.998;2023-06-22T13:04:11;33.20;75.30
26103;DHT22;69760;49.380;8.998;2023-06-22T13:06:42;33.30;72.70
26103;DHT22;69760;49.380;8.998;2023-06-22T13:09:09;33.30;70.60
26103;DHT22;69760;49.380;8.998;2023-06-22T13:11:34;33.30;70.90
26103;DHT22;69760;49.380;8.998;2023-06-22T13:14:03;33.30;72.10
26103;DHT22;69760;49.380;8.998;2023-06-22T13:16:29;33.20;70.00
26103;DHT22;69760;49.380;8.998;2023-06-22T13:18:55;32.90;69.60
26103;DHT22;69760;49.380;8.998;2023-06-22T13:21:20;32.90;69.90
26103;DHT22;69760;49.380;8.998;2023-06-22T13:23:46;32.90;70.00
26103;DHT22;69760;49.380;8.998;2023-06-22T13:26:11;33.00;69.70
26103;DHT22;69760;49.380;8.998;2023-06-22T13:28:37;32.80;70.20
26103;DHT22;69760;49.380;8.998;2023-06-22T13:31:02;32.80;71.00
26103;DHT22;69760;49.380;8.998;2023-06-22T13:33:28;32.90;69.80
26103;DHT22;69760;49.380;8.998;2023-06-22T13:35:54;33.10;68.80
26103;DHT22;69760;49.380;8.998;2023-06-22T13:38:19;33.20;69.20
26103;DHT22;69760;49.380;8.998;2023-06-22T13:40:45;33.30;68.90
26103;DHT22;69760;49.380;8.998;2023-06-22T13:43:13;33.30;69.40
26103;DHT22;69760;49.380;8.998;2023-06-22T13:45:38;33.60;71.00
26103;DHT22;69760;49.380;8.998;2023-06-22T13:48:04;33.70;66.30
26103;DHT22;69760;49.380;8.998;2023-06-22T13:50:30;33.90;67.70
26103;DHT22;69760;49.380;8.998;2023-06-22T13:52:55;34.20;66.20
26103;DHT22;69760;49.380;8.998;2023-06-22T13:55:22;34.50;63.70
26103;DHT22;69760;49.380;8.998;2023-06-22T13:57:48;34.70;63.10
26103;DHT22;69760;49.380;8.998;2023-06-22T14:00:14;34.90;64.20
26103;DHT22;69760;49.380;8.998;2023-06-22T14:02:40;34.90;61.30
26103;DHT22;69760;49.380;8.998;2023-06-22T14:05:07;34.90;64.40
26103;DHT22;69760;49.380;8.998;2023-06-22T14:07:32;34.90;65.90
26103;DHT22;69760;49.380;8.998;2023-06-22T14:09:59;35.00;66.90
26103;DHT22;69760;49.380;8.998;2023-06-22T14:12:25;35.20;65.90
26103;DHT22;69760;49.380;8.998;2023-06-22T14:14:50;35.40;64.40
26103;DHT22;69760;49.380;8.998;2023-06-22T14:17:16;35.50;64.90
26103;DHT22;69760;49.380;8.998;2023-06-22T14:19:41;35.70;61.90
26103;DHT22;69760;49.380;8.998;2023-06-22T14:22:07;35.80;61.70
26103;DHT22;69760;49.380;8.998;2023-06-22T14:24:32;35.80;60.50
26103;DHT22;69760;49.380;8.998;2023-06-22T14:26:58;36.10;63.70
26103;DHT22;69760;49.380;8.998;2023-06-22T14:29:25;36.30;60.00
26103;DHT22;69760;49.380;8.998;2023-06-22T14:31:50;36.50;60.50
26103;DHT22;69760;49.380;8.998;2023-06-22T14:34:16;36.70;57.50
26103;DHT22;69760;49.380;8.998;2023-06-22T14:36:42;36.70;58.70
26103;DHT22;69760;49.380;8.998;2023-06-22T14:39:08;36.60;56.40
26103;DHT22;69760;49.380;8.998;2023-06-22T14:41:35;36.50;58.30
26103;DHT22;69760;49.380;8.998;2023-06-22T14:44:01;36.40;59.70
26103;DHT22;69760;49.380;8.998;2023-06-22T14:46:27;36.20;61.40
26103;DHT22;69760;49.380;8.998;2023-06-22T14:48:53;35.90;60.50
26103;DHT22;69760;49.380;8.998;2023-06-22T14:51:18;35.40;61.10
26103;DHT22;69760;49.380;8.998;2023-06-22T14:53:45;35.00;61.20
26103;DHT22;69760;49.380;8.998;2023-06-22T14:56:11;34.70;62.50
26103;DHT22;69760;49.380;8.998;2023-06-22T14:58:38;34.30;64.00
26103;DHT22;69760;49.380;8.998;2023-06-22T15:01:05;34.00;64.20
26103;DHT22;69760;49.380;8.998;2023-06-22T15:03:34;33.70;64.20
26103;DHT22;69760;49.380;8.998;2023-06-22T15:06:01;33.50;64.80
26103;DHT22;69760;49.380;8.998;2023-06-22T15:08:27;33.20;66.30
26103;DHT22;69760;49.380;8.998;2023-06-22T15:10:53;33.10;67.20
26103;DHT22;69760;49.380;8.998;2023-06-22T15:13:19;32.90;67.30
26103;DHT22;69760;49.380;8.998;2023-06-22T15:15:46;32.80;67.00
26103;DHT22;69760;49.380;8.998;2023-06-22T15:18:13;32.70;67.40
26103;DHT22;69760;49.380;8.998;2023-06-22T15:20:38;32.60;67.50
26103;DHT22;69760;49.380;8.998;2023-06-22T15:23:06;32.40;66.60
26103;DHT22;69760;49.380;8.998;2023-06-22T15:25:32;32.20;67.50
26103;DHT22;69760;49.380;8.998;2023-06-22T15:27:57;32.20;68.30
26103;DHT22;69760;49.380;8.998;2023-06-22T15:30:23;32.30;68.90
26103;DHT22;69760;49.380;8.998;2023-06-22T15:32:48;32.40;68.60
26103;DHT22;69760;49.380;8.998;2023-06-22T15:35:16;32.60;69.00
26103;DHT22;69760;49.380;8.998;2023-06-22T15:37:44;32.70;68.30